sensor_id;sensor_type;location;lat;lon;timestamp;P1;durP1;ratioP1;P2;durP2;ratioP2
59659;SDS011;45534;52.690;6.268;2023-11-22T00:00:27;11.93;;;7.43;;
59659;SDS011;45534;52.690;6.268;2023-11-22T00:02:53;5.32;;;4.72;;
59659;SDS011;45534;52.690;6.268;2023-11-22T00:05:19;9.07;;;6.25;;
59659;SDS011;45534;52.690;6.268;2023-11-22T00:07:45;5.93;;;4.78;;
59659;SDS011;45534;52.690;6.268;2023-11-22T00:10:11;6.88;;;5.50;;
59659;SDS011;45534;52.690;6.268;2023-11-22T00:12:36;10.85;;;7.43;;
59659;SDS011;45534;52.690;6.268;2023-11-22T00:15:06;12.05;;;4.78;;
59659;SDS011;45534;52.690;6.268;2023-11-22T00:17:35;8.98;;;6.32;;
59659;SDS011;45534;52.690;6.268;2023-11-22T00:20:02;4.00;;;3.15;;
59659;SDS011;45534;52.690;6.268;2023-11-22T00:22:33;9.70;;;6.35;;
59659;SDS011;45534;52.690;6.268;2023-11-22T00:24:59;6.50;;;4.65;;
59659;SDS011;45534;52.690;6.268;2023-11-22T00:27:26;5.13;;;4.55;;
59659;SDS011;45534;52.690;6.268;2023-11-22T00:29:53;6.65;;;3.65;;
59659;SDS011;45534;52.690;6.268;2023-11-22T00:32:18;12.82;;;6.70;;
59659;SDS011;45534;52.690;6.268;2023-11-22T00:34:44;10.40;;;6.03;;
59659;SDS011;45534;52.690;6.268;2023-11-22T00:37:10;9.32;;;7.72;;
59659;SDS011;45534;52.690;6.268;2023-11-22T00:39:36;9.70;;;6.40;;
59659;SDS011;45534;52.690;6.268;2023-11-22T00:42:02;9.85;;;4.57;;
59659;SDS011;45534;52.690;6.268;2023-11-22T00:44:29;9.15;;;6.10;;
59659;SDS011;45534;52.690;6.268;2023-11-22T00:46:55;8.75;;;5.78;;
59659;SDS011;45534;52.690;6.268;2023-11-22T00:49:22;9.02;;;6.13;;
59659;SDS011;45534;52.690;6.268;2023-11-22T00:51:48;9.60;;;4.70;;
59659;SDS011;45534;52.690;6.268;2023-11-22T00:54:15;7.60;;;5.22;;
59659;SDS011;45534;52.690;6.268;2023-11-22T00:56:41;12.45;;;8.48;;
59659;SDS011;45534;52.690;6.268;2023-11-22T00:59:07;8.38;;;6.55;;
59659;SDS011;45534;52.690;6.268;2023-11-22T01:01:33;9.32;;;5.22;;
59659;SDS011;45534;52.690;6.268;2023-11-22T01:03:59;26.95;;;5.88;;
59659;SDS011;45534;52.690;6.268;2023-11-22T01:06:25;11.68;;;6.43;;
59659;SDS011;45534;52.690;6.268;2023-11-22T01:08:51;13.15;;;5.60;;
59659;SDS011;45534;52.690;6.268;2023-11-22T01:11:16;5.13;;;3.42;;
59659;SDS011;45534;52.690;6.268;2023-11-22T01:13:42;9.48;;;5.15;;
59659;SDS011;45534;52.690;6.268;2023-11-22T01:16:09;5.10;;;4.28;;
59659;SDS011;45534;52.690;6.268;2023-11-22T01:18:35;5.95;;;4.00;;
59659;SDS011;45534;52.690;6.268;2023-11-22T01:21:01;8.38;;;7.03;;
59659;SDS011;45534;52.690;6.268;2023-11-22T01:23:29;14.68;;;8.13;;
59659;SDS011;45534;52.690;6.268;2023-11-22T01:25:57;11.90;;;7.28;;
59659;SDS011;45534;52.690;6.268;2023-11-22T01:28:26;12.45;;;5.40;;
59659;SDS011;45534;52.690;6.268;2023-11-22T01:30:52;14.85;;;9.02;;
59659;SDS011;45534;52.690;6.268;2023-11-22T01:33:19;13.75;;;8.27;;
59659;SDS011;45534;52.690;6.268;2023-11-22T01:35:48;12.27;;;7.03;;
59659;SDS011;45534;52.690;6.268;2023-11-22T01:38:15;9.20;;;5.50;;
59659;SDS011;45534;52.690;6.268;2023-11-22T01:40:47;10.88;;;6.47;;
59659;SDS011;45534;52.690;6.268;2023-11-22T01:43:19;12.98;;;6.80;;
59659;SDS011;45534;52.690;6.268;2023-11-22T01:45:46;17.65;;;6.55;;
59659;SDS011;45534;52.690;6.268;2023-11-22T01:48:11;13.25;;;5.78;;
59659;SDS011;45534;52.690;6.268;2023-11-22T01:50:38;12.13;;;6.60;;
59659;SDS011;45534;52.690;6.268;2023-11-22T01:53:09;15.23;;;7.40;;
59659;SDS011;45534;52.690;6.268;2023-11-22T01:55:37;11.30;;;6.13;;
59659;SDS011;45534;52.690;6.268;2023-11-22T01:58:04;9.20;;;4.93;;
59659;SDS011;45534;52.690;6.268;2023-11-22T02:00:32;4.72;;;3.90;;
59659;SDS011;45534;52.690;6.268;2023-11-22T02:03:01;9.63;;;8.90;;
59659;SDS011;45534;52.690;6.268;2023-11-22T02:05:28;9.20;;;6.05;;
59659;SDS011;45534;52.690;6.268;2023-11-22T02:07:53;10.77;;;5.82;;
59659;SDS011;45534;52.690;6.268;2023-11-22T02:10:20;10.98;;;5.70;;
59659;SDS011;45534;52.690;6.268;2023-11-22T02:12:46;10.55;;;8.48;;
59659;SDS011;45534;52.690;6.268;2023-11-22T02:15:11;18.50;;;8.60;;
59659;SDS011;45534;52.690;6.268;2023-11-22T02:17:37;11.90;;;6.40;;
59659;SDS011;45534;52.690;6.268;2023-11-22T02:20:04;9.45;;;5.35;;
59659;SDS011;45534;52.690;6.268;2023-11-22T02:22:34;15.32;;;9.20;;
59659;SDS011;45534;52.690;6.268;2023-11-22T02:25:07;12.52;;;7.05;;
59659;SDS011;45534;52.690;6.268;2023-11-22T02:27:32;10.90;;;4.97;;
59659;SDS011;45534;52.690;6.268;2023-11-22T02:29:58;12.00;;;7.40;;
59659;SDS011;45534;52.690;6.268;2023-11-22T02:32:24;13.00;;;6.72;;
59659;SDS011;45534;52.690;6.268;2023-11-22T02:34:49;13.48;;;7.32;;
59659;SDS011;45534;52.690;6.268;2023-11-22T02:37:15;18.58;;;10.40;;
59659;SDS011;45534;52.690;6.268;2023-11-22T02:39:48;17.77;;;8.55;;
59659;SDS011;45534;52.690;6.268;2023-11-22T02:42:19;14.20;;;7.47;;
59659;SDS011;45534;52.690;6.268;2023-11-22T02:44:45;12.80;;;7.50;;
59659;SDS011;45534;52.690;6.268;2023-11-22T02:47:10;12.70;;;7.65;;
59659;SDS011;45534;52.690;6.268;2023-11-22T02:49:36;12.18;;;6.80;;
59659;SDS011;45534;52.690;6.268;2023-11-22T02:52:01;11.65;;;6.88;;
59659;SDS011;45534;52.690;6.268;2023-11-22T02:54:27;8.45;;;5.20;;
59659;SDS011;45534;52.690;6.268;2023-11-22T02:56:53;14.15;;;6.43;;
59659;SDS011;45534;52.690;6.268;2023-11-22T02:59:20;13.15;;;7.13;;
59659;SDS011;45534;52.690;6.268;2023-11-22T03:01:46;16.17;;;7.55;;
59659;SDS011;45534;52.690;6.268;2023-11-22T03:04:11;19.13;;;7.53;;
59659;SDS011;45534;52.690;6.268;2023-11-22T03:06:37;12.60;;;6.90;;
59659;SDS011;45534;52.690;6.268;2023-11-22T03:09:03;11.73;;;6.15;;
59659;SDS011;45534;52.690;6.268;2023-11-22T03:11:29;16.92;;;7.88;;
59659;SDS011;45534;52.690;6.268;2023-11-22T03:13:55;10.40;;;6.03;;
59659;SDS011;45534;52.690;6.268;2023-11-22T03:16:21;9.80;;;6.65;;
59659;SDS011;45534;52.690;6.268;2023-11-22T03:18:46;12.48;;;5.78;;
59659;SDS011;45534;52.690;6.268;2023-11-22T03:21:12;8.73;;;5.28;;
59659;SDS011;45534;52.690;6.268;2023-11-22T03:23:37;13.27;;;5.85;;
59659;SDS011;45534;52.690;6.268;2023-11-22T03:26:05;8.68;;;6.00;;
59659;SDS011;45534;52.690;6.268;2023-11-22T03:28:31;10.35;;;6.25;;
59659;SDS011;45534;52.690;6.268;2023-11-22T03:30:58;18.38;;;6.30;;
59659;SDS011;45534;52.690;6.268;2023-11-22T03:33:24;8.05;;;5.57;;
59659;SDS011;45534;52.690;6.268;2023-11-22T03:35:50;8.45;;;4.47;;
59659;SDS011;45534;52.690;6.268;2023-11-22T03:38:15;12.05;;;6.88;;
59659;SDS011;45534;52.690;6.268;2023-11-22T03:40:42;11.50;;;5.45;;
59659;SDS011;45534;52.690;6.268;2023-11-22T03:43:08;8.80;;;5.30;;
59659;SDS011;45534;52.690;6.268;2023-11-22T03:45:35;9.45;;;5.65;;
59659;SDS011;45534;52.690;6.268;2023-11-22T03:48:01;6.43;;;4.57;;
59659;SDS011;45534;52.690;6.268;2023-11-22T03:50:26;8.80;;;5.72;;
59659;SDS011;45534;52.690;6.268;2023-11-22T03:52:52;7.97;;;4.93;;
59659;SDS011;45534;52.690;6.268;2023-11-22T03:55:17;13.50;;;5.65;;
59659;SDS011;45534;52.690;6.268;2023-11-22T03:57:43;11.13;;;6.03;;
59659;SDS011;45534;52.690;6.268;2023-11-22T04:00:09;11.32;;;6.57;;
59659;SDS011;45534;52.690;6.268;2023-11-22T04:02:35;8.73;;;6.07;;
59659;SDS011;45534;52.690;6.268;2023-11-22T04:05:02;14.38;;;9.90;;
59659;SDS011;45534;52.690;6.268;2023-11-22T04:07:28;13.60;;;6.38;;
59659;SDS011;45534;52.690;6.268;2023-11-22T04:09:54;18.10;;;5.88;;
59659;SDS011;45534;52.690;6.268;2023-11-22T04:12:20;12.77;;;7.50;;
59659;SDS011;45534;52.690;6.268;2023-11-22T04:14:46;15.88;;;7.43;;
59659;SDS011;45534;52.690;6.268;2023-11-22T04:17:12;11.38;;;8.07;;
59659;SDS011;45534;52.690;6.268;2023-11-22T04:19:37;14.70;;;8.40;;
59659;SDS011;45534;52.690;6.268;2023-11-22T04:22:03;13.60;;;6.60;;
59659;SDS011;45534;52.690;6.268;2023-11-22T04:24:29;13.10;;;6.30;;
59659;SDS011;45534;52.690;6.268;2023-11-22T04:26:54;15.02;;;7.65;;
59659;SDS011;45534;52.690;6.268;2023-11-22T04:29:20;13.07;;;7.93;;
59659;SDS011;45534;52.690;6.268;2023-11-22T04:31:46;13.20;;;9.98;;
59659;SDS011;45534;52.690;6.268;2023-11-22T04:34:11;11.93;;;7.40;;
59659;SDS011;45534;52.690;6.268;2023-11-22T04:36:37;13.55;;;7.70;;
59659;SDS011;45534;52.690;6.268;2023-11-22T04:39:03;14.57;;;7.32;;
59659;SDS011;45534;52.690;6.268;2023-11-22T04:41:29;11.85;;;6.63;;
59659;SDS011;45534;52.690;6.268;2023-11-22T04:43:55;16.73;;;8.20;;
59659;SDS011;45534;52.690;6.268;2023-11-22T04:46:21;13.63;;;7.50;;
59659;SDS011;45534;52.690;6.268;2023-11-22T04:48:46;17.90;;;8.15;;
59659;SDS011;45534;52.690;6.268;2023-11-22T04:51:16;17.58;;;8.98;;
59659;SDS011;45534;52.690;6.268;2023-11-22T04:53:42;16.80;;;7.82;;
59659;SDS011;45534;52.690;6.268;2023-11-22T04:56:09;14.23;;;7.18;;
59659;SDS011;45534;52.690;6.268;2023-11-22T04:58:35;16.45;;;8.73;;
59659;SDS011;45534;52.690;6.268;2023-11-22T05:01:01;17.63;;;9.70;;
59659;SDS011;45534;52.690;6.268;2023-11-22T05:03:27;20.35;;;9.73;;
59659;SDS011;45534;52.690;6.268;2023-11-22T05:05:52;15.07;;;8.57;;
59659;SDS011;45534;52.690;6.268;2023-11-22T05:08:18;19.45;;;9.48;;
59659;SDS011;45534;52.690;6.268;2023-11-22T05:10:44;12.82;;;7.13;;
59659;SDS011;45534;52.690;6.268;2023-11-22T05:13:11;15.15;;;9.40;;
59659;SDS011;45534;52.690;6.268;2023-11-22T05:15:36;11.98;;;7.70;;
59659;SDS011;45534;52.690;6.268;2023-11-22T05:18:02;18.13;;;10.30;;
59659;SDS011;45534;52.690;6.268;2023-11-22T05:20:28;13.30;;;7.00;;
59659;SDS011;45534;52.690;6.268;2023-11-22T05:22:53;10.88;;;6.18;;
59659;SDS011;45534;52.690;6.268;2023-11-22T05:25:19;14.07;;;7.50;;
59659;SDS011;45534;52.690;6.268;2023-11-22T05:27:45;12.40;;;6.75;;
59659;SDS011;45534;52.690;6.268;2023-11-22T05:30:11;13.98;;;7.22;;
59659;SDS011;45534;52.690;6.268;2023-11-22T05:32:36;17.27;;;7.28;;
59659;SDS011;45534;52.690;6.268;2023-11-22T05:35:02;12.07;;;7.85;;
59659;SDS011;45534;52.690;6.268;2023-11-22T05:37:31;15.73;;;8.15;;
59659;SDS011;45534;52.690;6.268;2023-11-22T05:39:57;16.80;;;7.28;;
59659;SDS011;45534;52.690;6.268;2023-11-22T05:42:22;16.90;;;7.50;;
59659;SDS011;45534;52.690;6.268;2023-11-22T05:44:49;10.15;;;5.60;;
59659;SDS011;45534;52.690;6.268;2023-11-22T05:47:15;10.68;;;7.05;;
59659;SDS011;45534;52.690;6.268;2023-11-22T05:49:43;16.38;;;4.65;;
59659;SDS011;45534;52.690;6.268;2023-11-22T05:52:09;6.32;;;5.35;;
59659;SDS011;45534;52.690;6.268;2023-11-22T05:54:34;10.07;;;6.38;;
59659;SDS011;45534;52.690;6.268;2023-11-22T05:57:00;13.38;;;6.28;;
59659;SDS011;45534;52.690;6.268;2023-11-22T05:59:25;7.15;;;3.50;;
59659;SDS011;45534;52.690;6.268;2023-11-22T06:01:51;17.80;;;6.18;;
59659;SDS011;45534;52.690;6.268;2023-11-22T06:04:17;10.55;;;6.00;;
59659;SDS011;45534;52.690;6.268;2023-11-22T06:06:42;7.35;;;4.18;;
59659;SDS011;45534;52.690;6.268;2023-11-22T06:09:08;14.90;;;6.55;;
59659;SDS011;45534;52.690;6.268;2023-11-22T06:11:37;7.60;;;4.75;;
59659;SDS011;45534;52.690;6.268;2023-11-22T06:14:03;10.70;;;6.13;;
59659;SDS011;45534;52.690;6.268;2023-11-22T06:16:28;9.60;;;5.40;;
59659;SDS011;45534;52.690;6.268;2023-11-22T06:18:54;16.70;;;8.15;;
59659;SDS011;45534;52.690;6.268;2023-11-22T06:21:20;12.05;;;5.45;;
59659;SDS011;45534;52.690;6.268;2023-11-22T06:23:46;12.27;;;6.18;;
59659;SDS011;45534;52.690;6.268;2023-11-22T06:26:11;16.60;;;6.57;;
59659;SDS011;45534;52.690;6.268;2023-11-22T06:28:37;16.60;;;6.60;;
59659;SDS011;45534;52.690;6.268;2023-11-22T06:31:03;10.95;;;7.20;;
59659;SDS011;45534;52.690;6.268;2023-11-22T06:33:28;12.23;;;7.22;;
59659;SDS011;45534;52.690;6.268;2023-11-22T06:35:54;14.55;;;7.72;;
59659;SDS011;45534;52.690;6.268;2023-11-22T06:38:20;12.02;;;7.07;;
59659;SDS011;45534;52.690;6.268;2023-11-22T06:40:45;12.40;;;7.30;;
59659;SDS011;45534;52.690;6.268;2023-11-22T06:43:11;11.48;;;6.90;;
59659;SDS011;45534;52.690;6.268;2023-11-22T06:45:36;15.90;;;9.98;;
59659;SDS011;45534;52.690;6.268;2023-11-22T06:48:02;17.63;;;8.55;;
59659;SDS011;45534;52.690;6.268;2023-11-22T06:50:28;16.70;;;8.68;;
59659;SDS011;45534;52.690;6.268;2023-11-22T06:52:54;13.38;;;8.20;;
59659;SDS011;45534;52.690;6.268;2023-11-22T06:55:19;15.50;;;10.00;;
59659;SDS011;45534;52.690;6.268;2023-11-22T06:57:45;17.83;;;9.82;;
59659;SDS011;45534;52.690;6.268;2023-11-22T07:00:11;18.20;;;10.20;;
59659;SDS011;45534;52.690;6.268;2023-11-22T07:02:41;15.93;;;9.38;;
59659;SDS011;45534;52.690;6.268;2023-11-22T07:05:07;16.13;;;12.20;;
59659;SDS011;45534;52.690;6.268;2023-11-22T07:07:34;17.98;;;10.25;;
59659;SDS011;45534;52.690;6.268;2023-11-22T07:10:04;14.57;;;7.75;;
59659;SDS011;45534;52.690;6.268;2023-11-22T07:12:33;15.50;;;7.72;;
59659;SDS011;45534;52.690;6.268;2023-11-22T07:14:59;17.45;;;9.27;;
59659;SDS011;45534;52.690;6.268;2023-11-22T07:17:25;18.60;;;10.25;;
59659;SDS011;45534;52.690;6.268;2023-11-22T07:19:53;14.95;;;7.78;;
59659;SDS011;45534;52.690;6.268;2023-11-22T07:22:19;20.88;;;13.23;;
59659;SDS011;45534;52.690;6.268;2023-11-22T07:24:47;22.13;;;12.18;;
59659;SDS011;45534;52.690;6.268;2023-11-22T07:27:16;22.20;;;13.60;;
59659;SDS011;45534;52.690;6.268;2023-11-22T07:29:43;20.42;;;11.13;;
59659;SDS011;45534;52.690;6.268;2023-11-22T07:32:10;16.60;;;11.95;;
59659;SDS011;45534;52.690;6.268;2023-11-22T07:34:37;19.42;;;12.23;;
59659;SDS011;45534;52.690;6.268;2023-11-22T07:37:04;23.98;;;10.73;;
59659;SDS011;45534;52.690;6.268;2023-11-22T07:39:34;12.02;;;8.82;;
59659;SDS011;45534;52.690;6.268;2023-11-22T07:42:01;15.23;;;10.55;;
59659;SDS011;45534;52.690;6.268;2023-11-22T07:44:27;17.25;;;10.73;;
59659;SDS011;45534;52.690;6.268;2023-11-22T07:46:53;18.70;;;12.60;;
59659;SDS011;45534;52.690;6.268;2023-11-22T07:49:24;25.05;;;14.35;;
59659;SDS011;45534;52.690;6.268;2023-11-22T07:51:50;20.33;;;13.63;;
59659;SDS011;45534;52.690;6.268;2023-11-22T07:54:18;23.50;;;13.98;;
59659;SDS011;45534;52.690;6.268;2023-11-22T07:56:44;20.45;;;10.73;;
59659;SDS011;45534;52.690;6.268;2023-11-22T07:59:10;26.85;;;10.93;;
59659;SDS011;45534;52.690;6.268;2023-11-22T08:01:36;18.70;;;12.82;;
59659;SDS011;45534;52.690;6.268;2023-11-22T08:04:03;20.65;;;10.60;;
59659;SDS011;45534;52.690;6.268;2023-11-22T08:06:30;18.05;;;11.38;;
59659;SDS011;45534;52.690;6.268;2023-11-22T08:09:00;18.25;;;9.35;;
59659;SDS011;45534;52.690;6.268;2023-11-22T08:11:27;21.27;;;12.40;;
59659;SDS011;45534;52.690;6.268;2023-11-22T08:13:53;17.17;;;12.25;;
59659;SDS011;45534;52.690;6.268;2023-11-22T08:16:24;19.42;;;10.15;;
59659;SDS011;45534;52.690;6.268;2023-11-22T08:18:50;15.90;;;10.10;;
59659;SDS011;45534;52.690;6.268;2023-11-22T08:21:16;17.30;;;11.13;;
59659;SDS011;45534;52.690;6.268;2023-11-22T08:23:43;20.13;;;11.45;;
59659;SDS011;45534;52.690;6.268;2023-11-22T08:26:10;20.40;;;12.02;;
59659;SDS011;45534;52.690;6.268;2023-11-22T08:28:37;23.75;;;11.20;;
59659;SDS011;45534;52.690;6.268;2023-11-22T08:31:03;23.02;;;12.30;;
59659;SDS011;45534;52.690;6.268;2023-11-22T08:33:35;19.45;;;11.98;;
59659;SDS011;45534;52.690;6.268;2023-11-22T08:36:01;21.65;;;11.40;;
59659;SDS011;45534;52.690;6.268;2023-11-22T08:38:29;23.05;;;16.05;;
59659;SDS011;45534;52.690;6.268;2023-11-22T08:41:00;22.30;;;12.32;;
59659;SDS011;45534;52.690;6.268;2023-11-22T08:43:30;20.80;;;12.20;;
59659;SDS011;45534;52.690;6.268;2023-11-22T08:45:57;19.80;;;13.07;;
59659;SDS011;45534;52.690;6.268;2023-11-22T08:48:23;21.05;;;12.80;;
59659;SDS011;45534;52.690;6.268;2023-11-22T08:50:49;20.02;;;11.30;;
59659;SDS011;45534;52.690;6.268;2023-11-22T08:53:15;23.63;;;11.70;;
59659;SDS011;45534;52.690;6.268;2023-11-22T08:55:42;17.75;;;10.98;;
59659;SDS011;45534;52.690;6.268;2023-11-22T08:58:10;21.35;;;11.82;;
59659;SDS011;45534;52.690;6.268;2023-11-22T09:00:35;14.63;;;9.27;;
59659;SDS011;45534;52.690;6.268;2023-11-22T09:03:01;20.65;;;11.57;;
59659;SDS011;45534;52.690;6.268;2023-11-22T09:05:28;29.92;;;13.15;;
59659;SDS011;45534;52.690;6.268;2023-11-22T09:07:54;17.60;;;11.38;;
59659;SDS011;45534;52.690;6.268;2023-11-22T09:10:24;20.38;;;11.35;;
59659;SDS011;45534;52.690;6.268;2023-11-22T09:12:50;19.38;;;11.23;;
59659;SDS011;45534;52.690;6.268;2023-11-22T09:15:16;19.83;;;12.02;;
59659;SDS011;45534;52.690;6.268;2023-11-22T09:17:44;34.47;;;14.48;;
59659;SDS011;45534;52.690;6.268;2023-11-22T09:20:14;22.17;;;14.38;;
59659;SDS011;45534;52.690;6.268;2023-11-22T09:22:44;21.23;;;12.20;;
59659;SDS011;45534;52.690;6.268;2023-11-22T09:25:14;18.33;;;11.90;;
59659;SDS011;45534;52.690;6.268;2023-11-22T09:27:42;22.73;;;13.00;;
59659;SDS011;45534;52.690;6.268;2023-11-22T09:30:12;20.08;;;11.18;;
59659;SDS011;45534;52.690;6.268;2023-11-22T09:32:44;37.00;;;16.27;;
59659;SDS011;45534;52.690;6.268;2023-11-22T09:35:13;18.42;;;10.00;;
59659;SDS011;45534;52.690;6.268;2023-11-22T09:37:40;24.20;;;13.80;;
59659;SDS011;45534;52.690;6.268;2023-11-22T09:40:10;22.50;;;11.18;;
59659;SDS011;45534;52.690;6.268;2023-11-22T09:42:37;17.45;;;10.27;;
59659;SDS011;45534;52.690;6.268;2023-11-22T09:45:03;23.25;;;13.40;;
59659;SDS011;45534;52.690;6.268;2023-11-22T09:47:30;16.23;;;11.40;;
59659;SDS011;45534;52.690;6.268;2023-11-22T09:50:00;22.90;;;12.25;;
59659;SDS011;45534;52.690;6.268;2023-11-22T09:52:31;20.67;;;13.60;;
59659;SDS011;45534;52.690;6.268;2023-11-22T09:55:03;19.23;;;11.75;;
59659;SDS011;45534;52.690;6.268;2023-11-22T09:57:29;18.80;;;11.63;;
59659;SDS011;45534;52.690;6.268;2023-11-22T09:59:58;19.98;;;11.75;;
59659;SDS011;45534;52.690;6.268;2023-11-22T10:02:26;17.05;;;10.48;;
59659;SDS011;45534;52.690;6.268;2023-11-22T10:04:53;20.05;;;11.70;;
59659;SDS011;45534;52.690;6.268;2023-11-22T10:07:20;19.05;;;11.95;;
59659;SDS011;45534;52.690;6.268;2023-11-22T10:09:47;22.65;;;11.32;;
59659;SDS011;45534;52.690;6.268;2023-11-22T10:12:13;17.77;;;11.77;;
59659;SDS011;45534;52.690;6.268;2023-11-22T10:17:12;18.05;;;11.07;;
59659;SDS011;45534;52.690;6.268;2023-11-22T10:19:40;20.63;;;14.15;;
59659;SDS011;45534;52.690;6.268;2023-11-22T10:22:07;18.42;;;10.82;;
59659;SDS011;45534;52.690;6.268;2023-11-22T10:24:34;20.75;;;11.80;;
59659;SDS011;45534;52.690;6.268;2023-11-22T10:27:03;18.65;;;10.98;;
59659;SDS011;45534;52.690;6.268;2023-11-22T10:29:29;16.20;;;10.18;;
59659;SDS011;45534;52.690;6.268;2023-11-22T10:31:55;17.40;;;9.98;;
59659;SDS011;45534;52.690;6.268;2023-11-22T10:34:22;22.23;;;11.30;;
59659;SDS011;45534;52.690;6.268;2023-11-22T10:36:49;19.20;;;10.68;;
59659;SDS011;45534;52.690;6.268;2023-11-22T10:39:20;25.73;;;11.55;;
59659;SDS011;45534;52.690;6.268;2023-11-22T10:44:12;33.95;;;10.15;;
59659;SDS011;45534;52.690;6.268;2023-11-22T10:46:40;17.80;;;11.57;;
59659;SDS011;45534;52.690;6.268;2023-11-22T10:49:06;16.23;;;10.18;;
59659;SDS011;45534;52.690;6.268;2023-11-22T10:51:33;15.95;;;8.68;;
59659;SDS011;45534;52.690;6.268;2023-11-22T10:53:59;18.17;;;7.82;;
59659;SDS011;45534;52.690;6.268;2023-11-22T10:56:28;17.17;;;10.75;;
59659;SDS011;45534;52.690;6.268;2023-11-22T10:59:02;15.82;;;9.60;;
59659;SDS011;45534;52.690;6.268;2023-11-22T11:01:34;18.35;;;12.18;;
59659;SDS011;45534;52.690;6.268;2023-11-22T11:04:02;15.70;;;10.85;;
59659;SDS011;45534;52.690;6.268;2023-11-22T11:06:34;14.68;;;8.57;;
59659;SDS011;45534;52.690;6.268;2023-11-22T11:09:01;16.60;;;11.13;;
59659;SDS011;45534;52.690;6.268;2023-11-22T11:11:34;15.13;;;11.00;;
59659;SDS011;45534;52.690;6.268;2023-11-22T11:14:01;13.20;;;7.80;;
59659;SDS011;45534;52.690;6.268;2023-11-22T11:16:29;14.38;;;9.30;;
59659;SDS011;45534;52.690;6.268;2023-11-22T11:18:56;14.57;;;10.05;;
59659;SDS011;45534;52.690;6.268;2023-11-22T11:21:23;18.88;;;10.60;;
59659;SDS011;45534;52.690;6.268;2023-11-22T11:23:51;8.48;;;6.60;;
59659;SDS011;45534;52.690;6.268;2023-11-22T11:26:20;13.98;;;10.13;;
59659;SDS011;45534;52.690;6.268;2023-11-22T11:28:49;12.98;;;9.00;;
59659;SDS011;45534;52.690;6.268;2023-11-22T11:31:16;10.05;;;7.85;;
59659;SDS011;45534;52.690;6.268;2023-11-22T11:36:32;11.40;;;9.00;;
59659;SDS011;45534;52.690;6.268;2023-11-22T11:38:58;12.80;;;7.93;;
59659;SDS011;45534;52.690;6.268;2023-11-22T11:41:34;8.43;;;7.07;;
59659;SDS011;45534;52.690;6.268;2023-11-22T11:44:03;10.98;;;7.43;;
59659;SDS011;45534;52.690;6.268;2023-11-22T11:46:32;22.17;;;11.60;;
59659;SDS011;45534;52.690;6.268;2023-11-22T11:48:58;9.68;;;7.28;;
59659;SDS011;45534;52.690;6.268;2023-11-22T11:51:28;11.98;;;7.95;;
59659;SDS011;45534;52.690;6.268;2023-11-22T11:53:54;11.57;;;6.82;;
59659;SDS011;45534;52.690;6.268;2023-11-22T11:56:20;14.07;;;7.70;;
59659;SDS011;45534;52.690;6.268;2023-11-22T11:58:48;11.20;;;8.57;;
59659;SDS011;45534;52.690;6.268;2023-11-22T12:01:15;8.35;;;5.20;;
59659;SDS011;45534;52.690;6.268;2023-11-22T12:03:41;9.23;;;6.07;;
59659;SDS011;45534;52.690;6.268;2023-11-22T12:06:08;9.10;;;5.85;;
59659;SDS011;45534;52.690;6.268;2023-11-22T12:08:34;11.23;;;7.00;;
59659;SDS011;45534;52.690;6.268;2023-11-22T12:11:04;8.73;;;4.82;;
59659;SDS011;45534;52.690;6.268;2023-11-22T12:13:32;7.57;;;5.03;;
59659;SDS011;45534;52.690;6.268;2023-11-22T12:16:02;10.18;;;6.25;;
59659;SDS011;45534;52.690;6.268;2023-11-22T12:18:51;11.23;;;8.77;;
59659;SDS011;45534;52.690;6.268;2023-11-22T12:21:16;11.77;;;7.93;;
59659;SDS011;45534;52.690;6.268;2023-11-22T12:23:43;9.90;;;7.22;;
59659;SDS011;45534;52.690;6.268;2023-11-22T12:26:19;8.82;;;6.88;;
59659;SDS011;45534;52.690;6.268;2023-11-22T12:28:46;12.32;;;7.97;;
59659;SDS011;45534;52.690;6.268;2023-11-22T12:31:14;9.60;;;7.80;;
59659;SDS011;45534;52.690;6.268;2023-11-22T12:33:41;10.45;;;7.13;;
59659;SDS011;45534;52.690;6.268;2023-11-22T12:36:08;10.57;;;8.00;;
59659;SDS011;45534;52.690;6.268;2023-11-22T12:38:35;10.73;;;7.18;;
59659;SDS011;45534;52.690;6.268;2023-11-22T12:41:02;13.70;;;7.60;;
59659;SDS011;45534;52.690;6.268;2023-11-22T12:43:28;9.70;;;7.45;;
59659;SDS011;45534;52.690;6.268;2023-11-22T12:45:59;8.70;;;6.10;;
59659;SDS011;45534;52.690;6.268;2023-11-22T12:48:29;10.90;;;6.53;;
59659;SDS011;45534;52.690;6.268;2023-11-22T12:50:58;23.67;;;9.77;;
59659;SDS011;45534;52.690;6.268;2023-11-22T12:53:24;6.88;;;5.85;;
59659;SDS011;45534;52.690;6.268;2023-11-22T12:55:53;11.48;;;7.57;;
59659;SDS011;45534;52.690;6.268;2023-11-22T12:58:20;11.43;;;6.70;;
59659;SDS011;45534;52.690;6.268;2023-11-22T13:00:48;14.20;;;6.78;;
59659;SDS011;45534;52.690;6.268;2023-11-22T13:03:16;10.10;;;5.88;;
59659;SDS011;45534;52.690;6.268;2023-11-22T13:05:43;10.50;;;6.97;;
59659;SDS011;45534;52.690;6.268;2023-11-22T13:08:10;8.77;;;6.35;;
59659;SDS011;45534;52.690;6.268;2023-11-22T13:10:38;7.88;;;5.85;;
59659;SDS011;45534;52.690;6.268;2023-11-22T13:13:04;10.73;;;7.68;;
59659;SDS011;45534;52.690;6.268;2023-11-22T13:15:34;9.27;;;6.70;;
59659;SDS011;45534;52.690;6.268;2023-11-22T13:18:00;9.57;;;6.55;;
59659;SDS011;45534;52.690;6.268;2023-11-22T13:20:26;10.63;;;7.43;;
59659;SDS011;45534;52.690;6.268;2023-11-22T13:22:52;9.65;;;5.55;;
59659;SDS011;45534;52.690;6.268;2023-11-22T13:25:19;12.32;;;6.07;;
59659;SDS011;45534;52.690;6.268;2023-11-22T13:27:45;15.27;;;9.88;;
59659;SDS011;45534;52.690;6.268;2023-11-22T13:30:13;12.23;;;8.23;;
59659;SDS011;45534;52.690;6.268;2023-11-22T13:32:44;13.05;;;7.65;;
59659;SDS011;45534;52.690;6.268;2023-11-22T13:35:10;14.70;;;7.78;;
59659;SDS011;45534;52.690;6.268;2023-11-22T13:37:46;10.07;;;6.47;;
59659;SDS011;45534;52.690;6.268;2023-11-22T13:40:16;12.15;;;8.40;;
59659;SDS011;45534;52.690;6.268;2023-11-22T13:42:47;13.20;;;6.38;;
59659;SDS011;45534;52.690;6.268;2023-11-22T13:45:14;13.63;;;7.35;;
59659;SDS011;45534;52.690;6.268;2023-11-22T13:47:45;11.10;;;6.25;;
59659;SDS011;45534;52.690;6.268;2023-11-22T13:50:24;14.88;;;8.05;;
59659;SDS011;45534;52.690;6.268;2023-11-22T13:52:52;14.32;;;8.05;;
59659;SDS011;45534;52.690;6.268;2023-11-22T13:55:18;11.55;;;8.40;;
59659;SDS011;45534;52.690;6.268;2023-11-22T13:57:48;12.13;;;8.57;;
59659;SDS011;45534;52.690;6.268;2023-11-22T14:00:15;12.95;;;7.38;;
59659;SDS011;45534;52.690;6.268;2023-11-22T14:02:47;28.80;;;9.05;;
59659;SDS011;45534;52.690;6.268;2023-11-22T14:05:18;11.30;;;7.80;;
59659;SDS011;45534;52.690;6.268;2023-11-22T14:07:44;15.02;;;8.43;;
59659;SDS011;45534;52.690;6.268;2023-11-22T14:10:10;12.52;;;7.57;;
59659;SDS011;45534;52.690;6.268;2023-11-22T14:12:36;10.43;;;7.45;;
59659;SDS011;45534;52.690;6.268;2023-11-22T14:15:03;12.10;;;9.63;;
59659;SDS011;45534;52.690;6.268;2023-11-22T14:17:30;15.80;;;7.95;;
59659;SDS011;45534;52.690;6.268;2023-11-22T14:19:55;11.85;;;8.57;;
59659;SDS011;45534;52.690;6.268;2023-11-22T14:22:22;9.73;;;7.32;;
59659;SDS011;45534;52.690;6.268;2023-11-22T14:24:51;11.88;;;9.40;;
59659;SDS011;45534;52.690;6.268;2023-11-22T14:27:20;22.15;;;12.45;;
59659;SDS011;45534;52.690;6.268;2023-11-22T14:29:46;13.68;;;9.57;;
59659;SDS011;45534;52.690;6.268;2023-11-22T14:32:16;13.65;;;8.95;;
59659;SDS011;45534;52.690;6.268;2023-11-22T14:34:42;11.15;;;7.72;;
59659;SDS011;45534;52.690;6.268;2023-11-22T14:37:11;15.35;;;8.82;;
59659;SDS011;45534;52.690;6.268;2023-11-22T14:39:37;15.70;;;10.77;;